Time;durP1;ratioP1;P1;durP2;ratioP2;P2;SDS_P1;SDS_P2;PMS_P1;PMS_P2;Temp;Humidity;BMP_temperature;BMP_pressure;BME280_temperature;BME280_humidity;BME280_pressure;Samples;Min_cycle;Max_cycle;Signal;HPM_P1;HPM_P2
2022/09/24 00:00:52;;;;;;;14.60;7.80;;;15.50;83.30;;;;;;5072558;28;20028;-72
2022/09/24 00:03:19;;;;;;;15.88;8.15;;;15.40;83.40;;;;;;5072766;28;20048;-72
2022/09/24 00:05:46;;;;;;;14.80;8.23;;;15.50;83.50;;;;;;5074320;28;20029;-72
2022/09/24 00:08:12;;;;;;;16.52;8.32;;;15.50;83.30;;;;;;5076054;28;20021;-72
2022/09/24 00:10:41;;;;;;;16.42;8.93;;;15.40;83.40;;;;;;5075782;28;20029;-72
2022/09/24 00:13:11;;;;;;;17.52;9.50;;;15.50;83.30;;;;;;5076084;28;20025;-72
2022/09/24 00:15:38;;;;;;;17.58;9.15;;;15.40;83.10;;;;;;5076160;28;20074;-73
2022/09/24 00:18:04;;;;;;;17.55;9.02;;;15.40;83.30;;;;;;5075897;28;20029;-72
2022/09/24 00:20:31;;;;;;;15.55;8.65;;;15.40;83.30;;;;;;5075897;28;20024;-73
2022/09/24 00:22:58;;;;;;;16.65;9.10;;;15.40;83.30;;;;;;5075807;28;20025;-72
2022/09/24 00:28:08;;;;;;;20.40;9.77;;;15.40;83.30;;;;;;5075655;28;20071;-72
2022/09/24 00:30:37;;;;;;;17.10;9.45;;;15.40;84.00;;;;;;5075650;28;20486;-72
2022/09/24 00:33:03;;;;;;;18.33;9.27;;;15.30;83.20;;;;;;5075609;28;20041;-72
2022/09/24 00:35:31;;;;;;;17.75;9.68;;;15.30;83.20;;;;;;5075592;28;20029;-73
2022/09/24 00:37:58;;;;;;;18.33;8.63;;;15.30;83.70;;;;;;5074562;28;20059;-72
2022/09/24 00:40:34;;;;;;;17.55;9.52;;;15.20;83.70;;;;;;5075526;28;20048;-72
2022/09/24 00:43:00;;;;;;;18.17;9.60;;;15.20;83.80;;;;;;5075464;28;20025;-72
2022/09/24 00:45:29;;;;;;;17.00;9.05;;;15.20;84.00;;;;;;5075385;28;20044;-72
2022/09/24 00:47:57;;;;;;;15.18;8.50;;;15.20;84.00;;;;;;5075290;28;20021;-72
2022/09/24 00:50:26;;;;;;;16.50;8.75;;;15.20;83.90;;;;;;5075471;28;20029;-73
2022/09/24 00:53:03;;;;;;;17.80;9.60;;;15.20;83.90;;;;;;5075238;28;20017;-72
2022/09/24 00:55:32;;;;;;;17.30;8.82;;;15.20;83.90;;;;;;5075236;28;20039;-72
2022/09/24 00:58:02;;;;;;;18.23;9.88;;;15.20;83.90;;;;;;5075139;28;20028;-72
2022/09/24 01:00:29;;;;;;;20.20;9.70;;;15.10;83.80;;;;;;5075156;28;20070;-72
2022/09/24 01:03:00;;;;;;;19.35;9.85;;;15.10;84.00;;;;;;5074111;28;20028;-73
2022/09/24 01:05:27;;;;;;;17.60;9.18;;;15.10;84.10;;;;;;5075051;28;20017;-72
2022/09/24 01:07:53;;;;;;;17.75;9.15;;;15.10;84.00;;;;;;5074872;28;20029;-72
2022/09/24 01:10:48;;;;;;;17.95;8.88;;;15.00;84.20;;;;;;5074905;28;20031;-72
2022/09/24 01:13:58;;;;;;;15.88;8.20;;;15.00;84.40;;;;;;5064630;28;20044;-72
2022/09/24 01:17:00;;;;;;;16.00;8.48;;;15.00;84.40;;;;;;5072849;28;20035;-72
2022/09/24 01:19:52;;;;;;;18.55;8.90;;;14.90;84.50;;;;;;5073753;28;20404;-72
2022/09/24 01:22:39;;;;;;;17.63;8.80;;;14.90;84.70;;;;;;5064516;28;20044;-72
2022/09/24 01:25:33;;;;;;;18.20;9.05;;;14.90;84.70;;;;;;5074685;28;20029;-72
2022/09/24 01:28:18;;;;;;;16.38;8.70;;;14.90;84.70;;;;;;5073446;28;20036;-72
2022/09/24 01:30:48;;;;;;;16.92;8.43;;;14.90;85.00;;;;;;5074702;28;20021;-72
2022/09/24 01:33:18;;;;;;;16.73;8.80;;;14.80;85.10;;;;;;5074493;28;20020;-72
2022/09/24 01:35:50;;;;;;;16.98;9.10;;;14.80;85.40;;;;;;5074444;28;20025;-72
2022/09/24 01:38:29;;;;;;;19.75;9.52;;;14.80;85.50;;;;;;5074472;28;20041;-73
2022/09/24 01:40:58;;;;;;;19.17;8.75;;;14.70;85.50;;;;;;5074546;28;20021;-72
2022/09/24 01:43:26;;;;;;;16.63;8.73;;;14.70;86.00;;;;;;5074262;28;20093;-72
2022/09/24 01:45:58;;;;;;;18.15;9.50;;;14.60;86.10;;;;;;5074208;28;20467;-72
2022/09/24 01:48:24;;;;;;;17.73;8.95;;;14.60;86.50;;;;;;5074208;28;20029;-72
2022/09/24 01:51:13;;;;;;;18.15;8.50;;;14.60;86.60;;;;;;5074163;28;20050;-73
2022/09/24 01:53:48;;;;;;;17.55;8.85;;;14.60;86.30;;;;;;5074153;28;20021;-72
2022/09/24 01:56:21;;;;;;;17.30;8.48;;;14.60;86.40;;;;;;5074025;28;20029;-72
2022/09/24 01:59:10;;;;;;;19.23;8.63;;;14.60;86.30;;;;;;5074072;28;20047;-72
2022/09/24 02:01:43;;;;;;;17.48;8.80;;;14.60;86.30;;;;;;5073984;28;20017;-72
2022/09/24 02:04:15;;;;;;;19.95;8.63;;;14.60;86.20;;;;;;5073945;28;20078;-72
2022/09/24 02:07:03;;;;;;;16.05;8.52;;;14.60;86.20;;;;;;5073867;28;20032;-72
2022/09/24 02:09:38;;;;;;;18.17;8.20;;;14.60;86.20;;;;;;5073962;28;20025;-72
2022/09/24 02:12:16;;;;;;;18.58;8.43;;;14.70;86.20;;;;;;5073772;28;20045;-72
2022/09/24 02:15:14;;;;;;;18.25;9.00;;;14.70;86.10;;;;;;5072734;28;20021;-72
2022/09/24 02:17:44;;;;;;;15.65;7.85;;;14.80;85.90;;;;;;5073355;28;20041;-72
2022/09/24 02:20:15;;;;;;;17.20;8.02;;;14.80;85.60;;;;;;5073836;28;20085;-72
2022/09/24 02:22:42;;;;;;;14.90;7.75;;;14.90;85.40;;;;;;5073612;28;20021;-72
2022/09/24 02:25:12;;;;;;;15.50;7.63;;;14.90;85.10;;;;;;5073530;28;20090;-72
2022/09/24 02:27:39;;;;;;;15.40;8.20;;;14.90;85.00;;;;;;5073130;28;20033;-71
2022/09/24 02:30:06;;;;;;;15.93;8.23;;;14.90;84.90;;;;;;5072462;28;20032;-72
2022/09/24 02:32:35;;;;;;;15.52;8.07;;;15.00;84.80;;;;;;5072577;28;20055;-72
2022/09/24 02:35:05;;;;;;;20.00;8.32;;;15.00;84.20;;;;;;5073413;28;20025;-72
2022/09/24 02:37:38;;;;;;;14.32;7.78;;;14.90;84.30;;;;;;5073379;28;20379;-72
2022/09/24 02:40:06;;;;;;;15.90;8.65;;;14.90;84.80;;;;;;5073419;28;20024;-72
2022/09/24 02:42:33;;;;;;;16.70;8.52;;;14.80;84.90;;;;;;5073279;28;20025;-72
2022/09/24 02:44:59;;;;;;;13.98;7.38;;;14.70;85.20;;;;;;5073283;28;20379;-72
2022/09/24 02:47:28;;;;;;;15.10;8.13;;;14.60;85.60;;;;;;5073265;28;20088;-72
2022/09/24 02:49:54;;;;;;;17.75;8.25;;;14.50;86.20;;;;;;5073217;28;20029;-72
2022/09/24 02:52:21;;;;;;;18.52;9.05;;;14.50;86.40;;;;;;5073180;28;20104;-72
2022/09/24 02:54:49;;;;;;;20.60;9.90;;;14.50;86.90;;;;;;5073188;28;20025;-72
2022/09/24 02:57:15;;;;;;;20.35;10.30;;;14.40;86.70;;;;;;5073167;28;20053;-72
2022/09/24 02:59:41;;;;;;;20.20;9.73;;;14.50;87.00;;;;;;5072190;28;20025;-72
2022/09/24 03:02:06;;;;;;;23.15;10.25;;;14.50;86.80;;;;;;5072144;28;20041;-72
2022/09/24 03:04:32;;;;;;;26.50;11.63;;;14.40;86.80;;;;;;5072358;28;20029;-72
2022/09/24 03:06:57;;;;;;;24.35;11.30;;;14.50;86.90;;;;;;5071984;28;20033;-72
2022/09/24 03:09:23;;;;;;;24.08;11.52;;;14.50;86.80;;;;;;5073206;28;20021;-72
2022/09/24 03:11:49;;;;;;;23.42;10.93;;;14.60;86.50;;;;;;5072844;28;20052;-72
2022/09/24 03:14:14;;;;;;;21.05;11.40;;;14.60;86.50;;;;;;5072100;28;20056;-72
2022/09/24 03:16:40;;;;;;;22.10;11.07;;;14.60;86.40;;;;;;5072977;28;20055;-72
2022/09/24 03:19:06;;;;;;;22.75;11.57;;;14.60;86.40;;;;;;5072970;28;20025;-72
2022/09/24 03:21:32;;;;;;;22.25;11.27;;;14.60;86.50;;;;;;5072937;28;20029;-72
2022/09/24 03:23:59;;;;;;;21.70;10.70;;;14.60;86.50;;;;;;5072901;28;20078;-71
2022/09/24 03:26:25;;;;;;;22.10;10.63;;;14.60;86.50;;;;;;5072811;28;20049;-72
2022/09/24 03:28:51;;;;;;;21.55;11.30;;;14.60;86.40;;;;;;5072771;28;20080;-72
2022/09/24 03:31:16;;;;;;;22.48;10.68;;;14.60;86.40;;;;;;5072840;28;20029;-72
2022/09/24 03:33:44;;;;;;;19.67;10.70;;;14.60;86.40;;;;;;5072786;28;20030;-72
2022/09/24 03:36:16;;;;;;;19.23;9.82;;;14.60;86.40;;;;;;5072783;28;20025;-72
2022/09/24 03:38:44;;;;;;;18.03;10.07;;;14.60;86.40;;;;;;5072824;28;20101;-72
2022/09/24 03:41:11;;;;;;;23.05;10.32;;;14.60;86.30;;;;;;5075332;28;20267;-72
2022/09/24 03:43:37;;;;;;;21.23;10.32;;;14.60;86.20;;;;;;5076626;28;20021;-72
2022/09/24 03:46:05;;;;;;;22.58;11.15;;;14.60;86.40;;;;;;5076460;28;20071;-72
2022/09/24 03:48:33;;;;;;;21.58;11.32;;;14.70;86.40;;;;;;5076505;28;20083;-72
2022/09/24 03:51:10;;;;;;;22.92;11.50;;;14.50;86.70;;;;;;5076443;28;20029;-72
2022/09/24 03:53:36;;;;;;;20.85;11.48;;;14.60;86.90;;;;;;5076471;28;20048;-72
2022/09/24 03:56:07;;;;;;;20.00;10.95;;;14.50;87.00;;;;;;5076348;28;20047;-72
2022/09/24 03:58:37;;;;;;;24.35;12.30;;;14.50;87.40;;;;;;5076495;28;20044;-72
2022/09/24 04:01:05;;;;;;;25.80;11.88;;;14.50;87.40;;;;;;5076282;28;20017;-72
2022/09/24 04:03:31;;;;;;;24.33;11.82;;;14.50;87.50;;;;;;5076228;28;20021;-72
2022/09/24 04:05:57;;;;;;;25.17;12.85;;;14.50;88.60;;;;;;5076175;28;20108;-72
2022/09/24 04:08:22;;;;;;;29.23;13.85;;;14.40;87.70;;;;;;5076190;28;20037;-72
2022/09/24 04:10:49;;;;;;;28.13;13.88;;;14.50;88.90;;;;;;5076008;28;20035;-72
2022/09/24 04:13:16;;;;;;;30.25;13.82;;;14.40;87.90;;;;;;5075181;28;20059;-72
2022/09/24 04:15:41;;;;;;;28.00;14.02;;;14.40;88.20;;;;;;5075954;28;20090;-72
2022/09/24 04:18:07;;;;;;;27.92;13.00;;;14.40;88.20;;;;;;5075913;28;20029;-72
2022/09/24 04:20:33;;;;;;;28.15;14.13;;;14.40;88.60;;;;;;5075015;28;20021;-72
2022/09/24 04:22:59;;;;;;;26.80;13.63;;;14.40;88.30;;;;;;5075835;28;20033;-72
2022/09/24 04:25:29;;;;;;;28.02;14.25;;;14.40;88.40;;;;;;5075814;28;20034;-72
2022/09/24 04:27:57;;;;;;;26.67;13.98;;;14.40;88.50;;;;;;5075697;28;20033;-72
2022/09/24 04:30:24;;;;;;;26.60;14.32;;;14.40;88.10;;;;;;5075742;28;20024;-72
2022/09/24 04:32:51;;;;;;;25.80;14.60;;;14.40;88.30;;;;;;5075687;28;20400;-72
2022/09/24 04:35:21;;;;;;;27.83;13.77;;;14.40;88.20;;;;;;5075623;28;20024;-72
2022/09/24 04:37:47;;;;;;;27.90;13.73;;;14.40;88.50;;;;;;5075786;28;20036;-71
2022/09/24 04:40:15;;;;;;;24.45;13.88;;;14.40;88.30;;;;;;5075554;28;20025;-72
2022/09/24 04:42:43;;;;;;;26.85;14.23;;;14.30;88.70;;;;;;5075574;28;20051;-72
2022/09/24 04:45:09;;;;;;;30.75;13.95;;;14.30;88.60;;;;;;5075433;28;20029;-71
2022/09/24 04:47:37;;;;;;;26.50;12.90;;;14.30;88.50;;;;;;5075328;28;20025;-72
2022/09/24 04:50:03;;;;;;;26.70;12.98;;;14.30;88.60;;;;;;5075326;28;20400;-72
2022/09/24 04:52:31;;;;;;;24.70;13.27;;;14.30;88.70;;;;;;5075159;28;20085;-72
2022/09/24 04:54:57;;;;;;;26.67;13.10;;;14.30;88.50;;;;;;5075260;28;20051;-72
2022/09/24 04:57:24;;;;;;;25.45;12.82;;;14.30;88.40;;;;;;5074173;28;20039;-71
2022/09/24 04:59:49;;;;;;;24.67;12.63;;;14.30;89.30;;;;;;5075201;28;20441;-72
2022/09/24 05:02:15;;;;;;;21.67;11.60;;;14.30;88.60;;;;;;5075150;28;20033;-71
2022/09/24 05:04:42;;;;;;;21.75;11.63;;;14.30;88.60;;;;;;5075101;28;20021;-72
2022/09/24 05:07:08;;;;;;;25.55;12.60;;;14.30;88.40;;;;;;5074999;28;20032;-72
2022/09/24 05:09:34;;;;;;;24.27;12.38;;;14.30;88.50;;;;;;5074098;28;20024;-72
2022/09/24 05:12:00;;;;;;;20.42;11.48;;;14.30;88.50;;;;;;5074759;28;20047;-72
2022/09/24 05:14:26;;;;;;;23.55;11.95;;;14.30;88.80;;;;;;5073981;28;20017;-72
2022/09/24 05:16:52;;;;;;;22.42;12.00;;;14.30;88.90;;;;;;5057164;28;20029;-72
2022/09/24 05:19:17;;;;;;;22.00;11.82;;;14.30;88.60;;;;;;5074804;28;20036;-72
2022/09/24 05:21:43;;;;;;;22.70;11.30;;;14.30;88.70;;;;;;5074742;28;20100;-73
2022/09/24 05:24:09;;;;;;;21.77;12.07;;;14.30;88.70;;;;;;5074711;28;20511;-72
2022/09/24 05:29:18;;;;;;;23.55;12.23;;;14.30;88.60;;;;;;5074026;28;20090;-72
2022/09/24 05:31:44;;;;;;;25.75;12.75;;;14.30;88.70;;;;;;5074552;28;20025;-72
2022/09/24 05:34:10;;;;;;;23.20;10.77;;;14.30;88.80;;;;;;5073491;28;20040;-71
2022/09/24 05:36:36;;;;;;;19.90;11.23;;;14.30;89.00;;;;;;5074440;28;20040;-72
2022/09/24 05:39:02;;;;;;;23.40;11.30;;;14.30;88.80;;;;;;5074400;28;20037;-72
2022/09/24 05:41:28;;;;;;;21.48;11.10;;;14.30;88.90;;;;;;5074360;28;20033;-71
2022/09/24 05:43:55;;;;;;;21.85;11.50;;;14.30;89.00;;;;;;5073337;28;20103;-72
2022/09/24 05:46:21;;;;;;;18.83;10.15;;;14.20;89.00;;;;;;5074219;28;20036;-72
2022/09/24 05:48:47;;;;;;;22.67;10.38;;;14.30;89.10;;;;;;5074203;28;20029;-71
2022/09/24 05:51:13;;;;;;;19.73;10.98;;;14.30;88.90;;;;;;5073184;28;20017;-72
2022/09/24 05:53:38;;;;;;;20.63;11.05;;;14.30;88.70;;;;;;5074118;28;20067;-72
2022/09/24 05:56:04;;;;;;;18.55;10.23;;;14.30;88.70;;;;;;5074136;28;20029;-72
2022/09/24 05:58:30;;;;;;;18.88;10.20;;;14.30;88.90;;;;;;5074042;28;20025;-72
2022/09/24 06:00:59;;;;;;;19.02;10.05;;;14.30;89.10;;;;;;5074016;28;20029;-72
2022/09/24 06:03:25;;;;;;;17.77;9.40;;;14.30;89.20;;;;;;5073279;28;20032;-72
2022/09/24 06:05:51;;;;;;;22.90;10.13;;;14.40;89.00;;;;;;5073910;28;20029;-72
2022/09/24 06:08:19;;;;;;;17.08;9.30;;;14.40;88.90;;;;;;5073786;28;20032;-72
2022/09/24 06:10:46;;;;;;;20.17;10.02;;;14.40;88.80;;;;;;5073638;28;20013;-72
2022/09/24 06:13:15;;;;;;;16.85;9.27;;;14.40;88.90;;;;;;5073921;28;20051;-72
2022/09/24 06:15:41;;;;;;;16.38;8.90;;;14.40;88.80;;;;;;5073733;28;20076;-72
2022/09/24 06:18:10;;;;;;;18.33;10.05;;;14.50;88.90;;;;;;5073691;28;20024;-72
2022/09/24 06:20:36;;;;;;;18.23;9.55;;;14.50;88.90;;;;;;5072640;28;20084;-72
2022/09/24 06:23:02;;;;;;;17.88;9.88;;;14.50;89.10;;;;;;5073583;28;20029;-72
2022/09/24 06:25:29;;;;;;;17.85;9.63;;;14.40;89.30;;;;;;5073612;28;20022;-72
2022/09/24 06:28:00;;;;;;;17.50;9.57;;;14.50;89.20;;;;;;5073475;28;20029;-72
2022/09/24 06:30:37;;;;;;;18.23;9.27;;;14.50;88.90;;;;;;5072503;28;20029;-73
2022/09/24 06:33:08;;;;;;;18.25;9.18;;;14.50;88.90;;;;;;5073639;28;20017;-72
2022/09/24 06:35:39;;;;;;;16.42;9.05;;;14.50;89.10;;;;;;5073569;28;20028;-71
2022/09/24 06:38:06;;;;;;;18.35;9.65;;;14.50;89.20;;;;;;5073435;28;20025;-71
2022/09/24 06:40:32;;;;;;;16.35;9.25;;;14.50;89.40;;;;;;5073344;28;20021;-72
2022/09/24 06:42:57;;;;;;;18.30;9.52;;;14.50;89.10;;;;;;5073307;28;20086;-72
2022/09/24 06:45:25;;;;;;;17.58;8.73;;;14.50;88.90;;;;;;5073292;28;20025;-72
2022/09/24 06:47:56;;;;;;;17.45;9.18;;;14.60;88.90;;;;;;5073318;28;20025;-72
2022/09/24 06:50:22;;;;;;;17.92;9.52;;;14.60;88.80;;;;;;5073279;28;20013;-72
2022/09/24 06:52:48;;;;;;;20.27;10.25;;;14.50;88.90;;;;;;5073224;28;20025;-71
2022/09/24 06:55:15;;;;;;;20.67;10.20;;;14.50;89.20;;;;;;5073198;28;20028;-71
2022/09/24 06:57:41;;;;;;;15.57;8.68;;;14.60;89.30;;;;;;5073168;28;20025;-72
2022/09/24 07:00:07;;;;;;;18.42;8.82;;;14.60;89.00;;;;;;5073123;28;20108;-72
2022/09/24 07:02:33;;;;;;;18.50;9.52;;;14.50;88.90;;;;;;5073076;28;20029;-72
2022/09/24 07:04:58;;;;;;;22.35;10.80;;;14.50;88.80;;;;;;5073039;28;20043;-71
2022/09/24 07:07:33;;;;;;;21.45;9.85;;;14.40;89.60;;;;;;5073006;28;20029;-70
2022/09/24 07:10:06;;;;;;;19.35;10.60;;;14.50;89.80;;;;;;5073109;28;20034;-71
2022/09/24 07:12:34;;;;;;;20.02;10.55;;;14.40;89.80;;;;;;5072923;28;20041;-71
2022/09/24 07:15:00;;;;;;;21.95;11.00;;;14.40;89.90;;;;;;5075214;28;20484;-71
2022/09/24 07:17:27;;;;;;;20.33;10.63;;;14.40;90.00;;;;;;5077073;28;20032;-71
2022/09/24 07:19:53;;;;;;;18.42;10.00;;;14.40;90.00;;;;;;5077047;28;20032;-70
2022/09/24 07:22:20;;;;;;;18.85;10.35;;;14.40;90.10;;;;;;5077009;28;20024;-72
2022/09/24 07:24:46;;;;;;;22.25;11.18;;;14.40;90.20;;;;;;5076880;28;20032;-70
2022/09/24 07:27:12;;;;;;;22.63;11.48;;;14.40;90.30;;;;;;5076065;28;20051;-70
2022/09/24 07:29:37;;;;;;;20.42;11.20;;;14.40;90.30;;;;;;5076794;28;20028;-71
2022/09/24 07:32:04;;;;;;;21.23;11.40;;;14.30;90.30;;;;;;5076835;28;20025;-71
2022/09/24 07:34:29;;;;;;;21.08;11.60;;;14.30;90.50;;;;;;5076795;28;20103;-72
2022/09/24 07:36:56;;;;;;;21.42;12.25;;;14.40;90.30;;;;;;5076759;28;20032;-72
2022/09/24 07:39:22;;;;;;;21.60;11.80;;;14.40;90.40;;;;;;5076686;28;20049;-72
2022/09/24 07:41:50;;;;;;;18.77;11.18;;;14.30;90.40;;;;;;5076637;28;20025;-72
2022/09/24 07:44:19;;;;;;;20.67;11.20;;;14.40;90.50;;;;;;5076602;28;20481;-71
2022/09/24 07:46:51;;;;;;;25.63;13.30;;;14.40;90.30;;;;;;5076491;28;20040;-72
2022/09/24 07:49:17;;;;;;;22.98;11.60;;;14.40;90.40;;;;;;5076541;28;20088;-72
2022/09/24 07:51:44;;;;;;;21.60;11.75;;;14.30;90.50;;;;;;5076481;28;20063;-72
2022/09/24 07:54:10;;;;;;;22.73;12.18;;;14.40;90.60;;;;;;5076409;28;20032;-72
2022/09/24 07:56:36;;;;;;;22.25;12.05;;;14.40;90.50;;;;;;5076365;28;20029;-72
2022/09/24 07:59:03;;;;;;;23.13;12.27;;;14.40;90.60;;;;;;5076317;28;20055;-72
2022/09/24 08:01:30;;;;;;;24.63;12.35;;;14.40;90.60;;;;;;5076266;28;20025;-72
2022/09/24 08:03:56;;;;;;;25.40;12.73;;;14.40;90.60;;;;;;5076216;28;20029;-72
2022/09/24 08:06:22;;;;;;;22.58;13.20;;;14.40;90.60;;;;;;5076138;28;20077;-72
2022/09/24 08:08:55;;;;;;;22.90;12.13;;;14.40;90.70;;;;;;5076168;28;20026;-72
2022/09/24 08:11:20;;;;;;;23.20;12.32;;;14.40;90.70;;;;;;5074931;28;20053;-71
2022/09/24 08:13:46;;;;;;;23.02;12.52;;;14.40;90.70;;;;;;5076025;28;20068;-72
2022/09/24 08:16:12;;;;;;;26.60;12.82;;;14.40;90.60;;;;;;5075965;28;20029;-72
2022/09/24 08:18:38;;;;;;;23.65;12.55;;;14.50;91.00;;;;;;5075111;28;20036;-72
2022/09/24 08:21:07;;;;;;;22.85;12.73;;;14.50;90.60;;;;;;5075894;28;20033;-72
2022/09/24 08:23:33;;;;;;;23.50;12.70;;;14.50;90.50;;;;;;5075856;28;20017;-72
2022/09/24 08:25:59;;;;;;;24.98;12.50;;;14.50;90.40;;;;;;5075091;28;20021;-72
2022/09/24 08:28:24;;;;;;;25.50;12.95;;;14.60;90.40;;;;;;5075619;28;20357;-72
2022/09/24 08:30:50;;;;;;;24.42;12.50;;;14.60;90.40;;;;;;5074818;28;20033;-72
2022/09/24 08:33:16;;;;;;;26.20;11.88;;;14.60;90.50;;;;;;5075843;28;20021;-72
2022/09/24 08:35:41;;;;;;;23.63;12.27;;;14.70;90.40;;;;;;5075620;28;20112;-72
2022/09/24 08:38:08;;;;;;;22.52;12.13;;;14.70;90.30;;;;;;5075613;28;20029;-72
2022/09/24 08:40:41;;;;;;;25.27;12.35;;;14.70;90.40;;;;;;5075528;28;20519;-72
2022/09/24 08:43:24;;;;;;;24.33;12.60;;;14.60;90.40;;;;;;5075549;28;20084;-72
2022/09/24 08:48:48;;;;;;;24.27;12.65;;;14.60;90.50;;;;;;5075417;28;20044;-72
2022/09/24 08:51:19;;;;;;;24.25;12.48;;;14.60;90.50;;;;;;5075419;28;20044;-73
2022/09/24 08:54:01;;;;;;;25.50;12.52;;;14.70;90.50;;;;;;5075490;28;20041;-72
2022/09/24 08:56:33;;;;;;;23.42;12.10;;;14.60;90.60;;;;;;5074362;28;20017;-72
2022/09/24 08:59:00;;;;;;;22.08;12.57;;;14.70;90.60;;;;;;5075241;28;20049;-72
2022/09/24 09:01:32;;;;;;;24.27;12.23;;;14.70;90.60;;;;;;5075190;28;20093;-72
2022/09/24 09:04:17;;;;;;;25.15;12.73;;;14.70;90.60;;;;;;5074386;28;20059;-72
2022/09/24 09:07:02;;;;;;;23.40;11.48;;;14.70;90.60;;;;;;5074985;28;20059;-71
2022/09/24 09:09:45;;;;;;;22.83;12.23;;;14.80;90.60;;;;;;5075205;28;20025;-72
2022/09/24 09:12:34;;;;;;;25.42;11.85;;;14.80;90.70;;;;;;5074834;28;20051;-72
2022/09/24 09:15:01;;;;;;;25.85;12.07;;;14.70;90.70;;;;;;5074957;28;20032;-72
2022/09/24 09:17:44;;;;;;;22.52;12.45;;;14.80;90.80;;;;;;5074923;28;20021;-72
2022/09/24 09:20:40;;;;;;;23.52;12.10;;;14.80;90.70;;;;;;5074834;28;20028;-73
2022/09/24 09:23:18;;;;;;;23.00;12.00;;;14.70;90.60;;;;;;5070292;28;20041;-73
2022/09/24 09:25:53;;;;;;;23.70;11.43;;;14.80;90.50;;;;;;5074774;28;20017;-72
2022/09/24 09:28:19;;;;;;;21.77;12.25;;;14.80;90.60;;;;;;5074555;28;20029;-71
2022/09/24 09:31:02;;;;;;;24.52;12.25;;;14.80;90.60;;;;;;5074590;28;20036;-71
2022/09/24 09:33:58;;;;;;;19.70;10.88;;;14.80;90.60;;;;;;5074589;28;20021;-72
2022/09/24 09:36:44;;;;;;;22.35;11.60;;;14.80;90.50;;;;;;5074662;28;20047;-71
2022/09/24 09:39:28;;;;;;;25.05;12.48;;;14.90;90.40;;;;;;5073718;28;20017;-72
2022/09/24 09:42:13;;;;;;;21.73;11.55;;;14.90;90.30;;;;;;5073432;28;20032;-71
2022/09/24 09:44:41;;;;;;;24.02;11.48;;;14.90;90.40;;;;;;5074307;28;20025;-71
2022/09/24 09:47:23;;;;;;;25.08;12.43;;;14.90;90.40;;;;;;5074151;28;20059;-72
2022/09/24 09:49:51;;;;;;;22.20;11.50;;;15.00;90.50;;;;;;5074208;28;20013;-72
2022/09/24 09:52:25;;;;;;;21.77;11.40;;;15.00;90.40;;;;;;5074180;28;20028;-72
2022/09/24 09:54:51;;;;;;;20.98;10.98;;;15.00;90.30;;;;;;5074131;28;20021;-72
2022/09/24 09:57:23;;;;;;;24.90;11.45;;;15.10;90.70;;;;;;5074196;28;20044;-72
2022/09/24 09:59:56;;;;;;;22.67;11.90;;;15.10;90.30;;;;;;5131672;27;20395;-71
2022/09/24 10:02:30;;;;;;;22.98;12.55;;;15.10;90.20;;;;;;5131376;28;20035;-72
2022/09/24 10:04:59;;;;;;;21.50;11.20;;;15.20;90.20;;;;;;5131393;28;20103;-72
2022/09/24 10:07:25;;;;;;;20.58;11.32;;;15.20;90.20;;;;;;5131466;28;20031;-71
2022/09/24 10:10:15;;;;;;;24.25;11.60;;;15.20;90.10;;;;;;5131190;28;20028;-71
2022/09/24 10:12:40;;;;;;;21.92;12.15;;;15.20;90.00;;;;;;5131221;28;20016;-72
2022/09/24 10:15:21;;;;;;;22.00;12.02;;;15.20;89.90;;;;;;5131136;28;20038;-72
2022/09/24 10:17:51;;;;;;;22.88;12.50;;;15.20;89.80;;;;;;5131037;28;20012;-72
2022/09/24 10:20:21;;;;;;;20.20;11.73;;;15.20;89.90;;;;;;5131022;28;20024;-71
2022/09/24 10:23:02;;;;;;;21.30;11.85;;;15.20;89.60;;;;;;5131191;28;20020;-72
2022/09/24 10:25:30;;;;;;;21.75;12.15;;;15.30;89.80;;;;;;5130010;28;20028;-71
2022/09/24 10:30:55;;;;;;;22.20;12.50;;;15.30;89.90;;;;;;5110609;28;20082;-72
2022/09/24 10:33:21;;;;;;;19.88;11.70;;;15.30;89.70;;;;;;5110389;28;20052;-72
2022/09/24 10:35:48;;;;;;;21.95;12.23;;;15.30;89.50;;;;;;5110311;28;20088;-71
2022/09/24 10:38:17;;;;;;;21.63;11.65;;;15.30;89.60;;;;;;5110206;28;20021;-71
2022/09/24 10:40:43;;;;;;;24.88;11.60;;;15.30;89.60;;;;;;5109199;28;20017;-72
2022/09/24 10:43:18;;;;;;;22.52;12.35;;;15.40;89.40;;;;;;5110270;28;20036;-71
2022/09/24 10:46:11;;;;;;;22.98;12.15;;;15.40;89.30;;;;;;5110136;28;20021;-72
2022/09/24 10:48:57;;;;;;;22.73;12.32;;;15.40;89.20;;;;;;5110165;28;20027;-72
2022/09/24 10:51:52;;;;;;;22.50;12.32;;;15.40;89.10;;;;;;5109081;28;20062;-72
2022/09/24 10:54:47;;;;;;;20.42;11.95;;;15.40;89.10;;;;;;5086236;28;20399;-71
2022/09/24 10:57:39;;;;;;;21.00;11.38;;;15.40;88.90;;;;;;5109016;28;20028;-71
2022/09/24 11:00:19;;;;;;;21.33;11.27;;;15.40;88.80;;;;;;5110044;28;20038;-71
2022/09/24 11:03:09;;;;;;;24.80;12.55;;;15.40;88.60;;;;;;5109894;28;20046;-72
2022/09/24 11:05:48;;;;;;;25.38;11.93;;;15.40;88.80;;;;;;5109976;28;20059;-72
2022/09/24 11:08:41;;;;;;;21.98;11.43;;;15.50;88.90;;;;;;5109836;28;20020;-72
2022/09/24 11:11:27;;;;;;;21.45;11.02;;;15.40;89.00;;;;;;5097299;28;20031;-71
2022/09/24 11:14:05;;;;;;;22.38;11.40;;;15.50;88.80;;;;;;5096258;28;20024;-72
2022/09/24 11:17:01;;;;;;;21.50;11.93;;;15.50;88.70;;;;;;5094981;28;20028;-72
2022/09/24 11:19:35;;;;;;;23.20;11.90;;;15.50;88.60;;;;;;5094960;28;20036;-71
2022/09/24 11:22:15;;;;;;;22.40;12.32;;;15.60;88.60;;;;;;5095958;28;20028;-71
2022/09/24 11:25:15;;;;;;;20.60;12.00;;;15.60;88.40;;;;;;5095939;28;20043;-71
2022/09/24 11:27:59;;;;;;;21.65;11.75;;;15.60;88.40;;;;;;5095881;28;20021;-71
2022/09/24 11:30:46;;;;;;;21.92;11.85;;;15.60;88.50;;;;;;5095734;28;20051;-71
2022/09/24 11:33:30;;;;;;;22.90;11.68;;;15.60;88.40;;;;;;5095766;28;20126;-71
2022/09/24 11:36:04;;;;;;;22.02;12.13;;;15.60;88.30;;;;;;5095812;28;20021;-71
2022/09/24 11:39:07;;;;;;;26.25;12.35;;;15.60;88.20;;;;;;5095591;28;20021;-71
2022/09/24 11:41:44;;;;;;;22.55;12.10;;;15.60;88.20;;;;;;5095589;28;20032;-72
2022/09/24 11:44:29;;;;;;;24.20;11.88;;;15.60;88.10;;;;;;5095715;28;20017;-71
2022/09/24 11:47:25;;;;;;;22.58;11.80;;;15.60;88.20;;;;;;5095529;28;20024;-71
2022/09/24 11:50:10;;;;;;;21.00;12.07;;;15.70;88.10;;;;;;5095513;28;20071;-71
2022/09/24 11:53:03;;;;;;;18.20;11.40;;;15.60;88.00;;;;;;5095420;28;20025;-72
2022/09/24 11:55:53;;;;;;;19.40;11.18;;;15.70;87.90;;;;;;5095388;28;20028;-71
2022/09/24 11:58:30;;;;;;;23.52;11.88;;;15.70;87.80;;;;;;5094945;28;20108;-71
2022/09/24 12:01:05;;;;;;;23.02;12.40;;;15.70;87.70;;;;;;5095258;28;20032;-72
2022/09/24 12:03:59;;;;;;;23.30;12.73;;;15.80;87.70;;;;;;5095183;28;20027;-71
2022/09/24 12:06:32;;;;;;;25.48;11.93;;;15.80;87.40;;;;;;5095190;28;20012;-71
2022/09/24 12:09:22;;;;;;;23.40;12.93;;;15.80;87.30;;;;;;5095069;28;20029;-71
2022/09/24 12:11:56;;;;;;;23.75;12.32;;;15.80;87.20;;;;;;5095151;28;20048;-70
2022/09/24 12:14:28;;;;;;;22.83;12.10;;;15.80;87.00;;;;;;5094938;28;20066;-71
2022/09/24 12:17:06;;;;;;;23.02;12.57;;;15.90;86.90;;;;;;5095082;28;20036;-71
2022/09/24 12:20:13;;;;;;;23.52;12.85;;;15.90;86.70;;;;;;5094817;28;20032;-71
2022/09/24 12:22:40;;;;;;;21.25;11.90;;;15.90;86.50;;;;;;5064047;28;20037;-71
2022/09/24 12:25:11;;;;;;;23.42;12.30;;;15.90;86.80;;;;;;5094695;28;20024;-71
2022/09/24 12:27:38;;;;;;;22.35;13.15;;;15.90;86.70;;;;;;5094727;28;20024;-71
2022/09/24 12:33:40;;;;;;;25.83;13.13;;;16.00;86.60;;;;;;5094722;28;20043;-71
2022/09/24 12:36:27;;;;;;;21.40;12.40;;;16.00;86.70;;;;;;5094564;28;20017;-71
2022/09/24 12:39:00;;;;;;;22.98;12.57;;;16.00;86.40;;;;;;5094362;28;20020;-71
2022/09/24 12:41:35;;;;;;;22.98;12.30;;;16.00;86.10;;;;;;5094567;28;20080;-71
2022/09/24 12:44:21;;;;;;;22.63;12.30;;;16.00;86.10;;;;;;5094362;28;20051;-71
2022/09/24 12:46:56;;;;;;;24.75;13.00;;;16.10;86.00;;;;;;5094369;28;20025;-71
2022/09/24 12:49:24;;;;;;;21.33;11.98;;;16.10;86.10;;;;;;5094230;28;20383;-71
2022/09/24 12:52:03;;;;;;;23.35;12.32;;;16.10;86.00;;;;;;5094154;28;20021;-71
2022/09/24 12:54:37;;;;;;;24.13;13.30;;;16.10;85.70;;;;;;5094091;28;20046;-70
2022/09/24 12:57:18;;;;;;;23.40;12.55;;;16.10;85.60;;;;;;5094099;28;20036;-71
2022/09/24 12:59:58;;;;;;;21.80;12.77;;;16.10;85.60;;;;;;5093839;28;20048;-70
2022/09/24 13:02:43;;;;;;;21.83;12.43;;;16.10;85.60;;;;;;5094045;28;20032;-71
2022/09/24 13:05:26;;;;;;;21.85;12.57;;;16.10;85.30;;;;;;5094016;28;20021;-71
2022/09/24 13:08:23;;;;;;;24.50;12.65;;;16.10;85.10;;;;;;5093941;28;20023;-70
2022/09/24 13:10:55;;;;;;;22.38;13.15;;;16.20;85.30;;;;;;5093904;28;20028;-70